Time;durP1;ratioP1;P1;durP2;ratioP2;P2;SDS_P1;SDS_P2;PMS_P1;PMS_P2;Temp;Humidity;BMP_temperature;BMP_pressure;BME280_temperature;BME280_humidity;BME280_pressure;Samples;Min_cycle;Max_cycle;Signal;HPM_P1;HPM_P2
2022/07/20 00:01:28;;;;;;;10.73;4.10;;;31.30;31.80;;;;;;5062707;28;20518;-79
2022/07/20 00:03:55;;;;;;;6.43;4.63;;;31.40;31.40;;;;;;5055868;28;20464;-80
2022/07/20 00:06:23;;;;;;;6.30;4.23;;;31.30;31.80;;;;;;5055944;28;20435;-79
2022/07/20 00:11:37;;;;;;;6.50;4.03;;;31.20;31.50;;;;;;5057237;28;20517;-79
2022/07/20 00:14:05;;;;;;;7.87;4.40;;;31.00;32.00;;;;;;5055732;28;20468;-79
2022/07/20 00:16:34;;;;;;;4.50;4.10;;;31.00;31.80;;;;;;5056893;28;20453;-79
2022/07/20 00:19:03;;;;;;;8.47;4.93;;;30.90;31.80;;;;;;5056563;28;20477;-79
2022/07/20 00:21:31;;;;;;;10.50;4.67;;;31.00;31.70;;;;;;5056977;28;20952;-79
2022/07/20 00:23:59;;;;;;;7.90;3.83;;;31.00;31.70;;;;;;5056342;28;20550;-79
2022/07/20 00:26:27;;;;;;;5.93;4.33;;;30.90;31.60;;;;;;5056165;28;20446;-79
2022/07/20 00:28:56;;;;;;;4.70;4.07;;;30.90;31.40;;;;;;5055768;28;20431;-78
2022/07/20 00:31:24;;;;;;;4.17;3.87;;;30.90;31.60;;;;;;5056199;28;21037;-79
2022/07/20 00:33:52;;;;;;;8.23;4.20;;;30.90;31.50;;;;;;5054954;28;20969;-79
2022/07/20 00:36:20;;;;;;;6.20;4.37;;;30.90;31.60;;;;;;5055979;28;20451;-79
2022/07/20 00:38:47;;;;;;;8.57;4.63;;;30.90;31.50;;;;;;5055907;28;20537;-80
2022/07/20 00:41:16;;;;;;;5.17;4.27;;;30.90;31.50;;;;;;5053481;28;20473;-79
2022/07/20 00:44:00;;;;;;;4.73;4.30;;;30.90;31.80;;;;;;5045686;28;20491;-80
2022/07/20 00:46:28;;;;;;;4.47;4.07;;;30.80;31.80;;;;;;5034094;28;20443;-79
2022/07/20 00:48:56;;;;;;;8.47;4.77;;;30.70;31.80;;;;;;5050789;28;20477;-79
2022/07/20 00:51:24;;;;;;;8.03;4.27;;;30.70;32.00;;;;;;5055099;28;20434;-79
2022/07/20 00:53:52;;;;;;;9.40;4.90;;;30.70;31.80;;;;;;5054075;28;20429;-79
2022/07/20 00:56:20;;;;;;;9.63;4.60;;;30.50;31.80;;;;;;5053187;28;20438;-79
2022/07/20 00:58:48;;;;;;;6.77;4.40;;;30.10;32.00;;;;;;5054164;28;20445;-79
2022/07/20 01:01:17;;;;;;;4.63;4.23;;;29.70;32.80;;;;;;5049805;28;20496;-79
2022/07/20 01:03:45;;;;;;;5.63;4.00;;;29.70;34.20;;;;;;5054021;28;20516;-79
2022/07/20 01:06:13;;;;;;;9.33;4.30;;;29.90;33.10;;;;;;5053625;28;20425;-79
2022/07/20 01:08:41;;;;;;;6.17;4.53;;;29.90;32.90;;;;;;5053831;28;20518;-79
2022/07/20 01:11:09;;;;;;;5.63;4.40;;;29.70;32.70;;;;;;5053819;28;20445;-79
2022/07/20 01:13:37;;;;;;;17.37;5.00;;;29.70;33.10;;;;;;5053098;28;20545;-79
2022/07/20 01:16:05;;;;;;;7.23;4.93;;;29.40;33.40;;;;;;5052393;28;20449;-79
2022/07/20 01:18:34;;;;;;;4.70;4.17;;;29.20;33.60;;;;;;5054101;28;20432;-79
2022/07/20 01:21:03;;;;;;;6.07;4.93;;;29.20;34.10;;;;;;5053503;28;20466;-78
2022/07/20 01:23:31;;;;;;;5.70;4.53;;;29.20;33.90;;;;;;5052818;28;20463;-79
2022/07/20 01:25:59;;;;;;;5.53;4.67;;;29.30;33.90;;;;;;5052512;28;20453;-79
2022/07/20 01:28:28;;;;;;;9.83;4.77;;;29.20;33.70;;;;;;5053390;28;20430;-79
2022/07/20 01:30:55;;;;;;;8.47;4.80;;;29.40;33.90;;;;;;5053623;28;20435;-79
2022/07/20 01:33:23;;;;;;;6.33;4.80;;;29.40;33.40;;;;;;5053761;28;21068;-79
2022/07/20 01:35:51;;;;;;;52.20;36.23;;;29.20;33.70;;;;;;5051754;28;20497;-79
2022/07/20 01:38:21;;;;;;;48.80;34.23;;;29.10;34.20;;;;;;5052462;28;20431;-79
2022/07/20 01:40:49;;;;;;;21.23;13.33;;;29.20;34.40;;;;;;5042424;28;20469;-78
2022/07/20 01:43:16;;;;;;;7.33;6.23;;;29.40;33.90;;;;;;5053384;28;20497;-78
2022/07/20 01:45:44;;;;;;;7.57;4.87;;;29.00;34.20;;;;;;5047494;28;20450;-79
2022/07/20 01:48:13;;;;;;;5.63;4.50;;;29.00;33.90;;;;;;5032875;28;20504;-79
2022/07/20 01:50:40;;;;;;;9.33;4.70;;;28.70;34.40;;;;;;5033637;28;20466;-79
2022/07/20 01:53:08;;;;;;;5.50;4.27;;;28.80;34.40;;;;;;5033791;28;20441;-79
2022/07/20 01:55:37;;;;;;;6.10;4.73;;;28.70;34.70;;;;;;5033472;28;20442;-79
2022/07/20 01:58:05;;;;;;;8.53;4.33;;;28.70;34.80;;;;;;5040026;28;20930;-79
2022/07/20 02:00:34;;;;;;;7.27;4.83;;;28.60;34.60;;;;;;5052331;28;20466;-79
2022/07/20 02:03:02;;;;;;;8.03;4.57;;;28.50;34.90;;;;;;5051373;28;20785;-79
2022/07/20 02:05:31;;;;;;;5.43;4.90;;;28.60;34.60;;;;;;5051297;28;20446;-79
2022/07/20 02:07:59;;;;;;;6.60;4.70;;;28.60;34.80;;;;;;5052426;28;20446;-79
2022/07/20 02:10:27;;;;;;;6.50;4.40;;;28.60;35.30;;;;;;5051436;28;20442;-79
2022/07/20 02:12:56;;;;;;;6.00;4.70;;;28.60;34.90;;;;;;5051059;28;20473;-79
2022/07/20 02:18:11;;;;;;;5.30;4.30;;;28.50;34.90;;;;;;5051304;28;20441;-79
2022/07/20 02:20:39;;;;;;;8.43;4.90;;;28.50;34.80;;;;;;5050413;28;21004;-79
2022/07/20 02:23:08;;;;;;;7.17;5.20;;;28.50;35.20;;;;;;5051804;28;20458;-79
2022/07/20 02:25:36;;;;;;;8.70;5.23;;;28.50;35.00;;;;;;5050960;28;20444;-79
2022/07/20 02:28:05;;;;;;;8.27;5.20;;;28.70;34.40;;;;;;5051385;28;20529;-79
2022/07/20 02:30:34;;;;;;;5.87;5.07;;;28.70;34.00;;;;;;5051239;28;20441;-79
2022/07/20 02:33:01;;;;;;;5.73;5.10;;;28.20;34.60;;;;;;5050630;28;20439;-79
2022/07/20 02:35:29;;;;;;;4.90;4.40;;;28.00;35.30;;;;;;5049990;28;20429;-79
2022/07/20 02:37:58;;;;;;;6.07;4.80;;;28.20;35.10;;;;;;5050886;28;20869;-79
2022/07/20 02:40:26;;;;;;;8.30;4.63;;;28.10;35.20;;;;;;5050412;28;20521;-78
2022/07/20 02:42:54;;;;;;;11.37;4.90;;;28.20;35.40;;;;;;5051071;28;20966;-79
2022/07/20 02:45:23;;;;;;;11.10;5.07;;;28.10;35.00;;;;;;5050226;28;20797;-79
2022/07/20 02:47:51;;;;;;;5.30;4.77;;;28.10;34.80;;;;;;5044690;28;20446;-78
2022/07/20 02:50:19;;;;;;;5.33;4.83;;;28.00;35.60;;;;;;5030520;28;20486;-79
2022/07/20 02:52:47;;;;;;;6.30;4.67;;;27.90;35.70;;;;;;5039254;28;20529;-79
2022/07/20 02:55:15;;;;;;;5.60;4.70;;;27.80;35.50;;;;;;5049946;28;21004;-79
2022/07/20 02:57:43;;;;;;;11.03;5.10;;;27.80;35.60;;;;;;5050359;28;20415;-78
2022/07/20 03:00:12;;;;;;;10.10;5.20;;;27.60;36.10;;;;;;5050449;28;20413;-79
2022/07/20 03:02:41;;;;;;;5.70;4.90;;;27.50;36.30;;;;;;5050329;28;20512;-79
2022/07/20 03:05:09;;;;;;;7.83;5.23;;;27.70;36.00;;;;;;5050364;28;20500;-79
2022/07/20 03:07:37;;;;;;;10.33;5.30;;;27.80;35.80;;;;;;5050054;28;20521;-79
2022/07/20 03:10:06;;;;;;;5.70;4.90;;;27.80;36.30;;;;;;5051906;28;20503;-79
2022/07/20 03:12:34;;;;;;;7.03;4.80;;;28.10;36.10;;;;;;5053849;28;20405;-79
2022/07/20 03:15:02;;;;;;;5.37;4.87;;;27.80;35.60;;;;;;5053378;28;20434;-78
2022/07/20 03:17:29;;;;;;;9.30;5.20;;;27.60;36.50;;;;;;5053601;28;20529;-78
2022/07/20 03:19:58;;;;;;;8.50;4.57;;;27.70;36.20;;;;;;5053239;28;20430;-78
2022/07/20 03:22:26;;;;;;;7.90;5.00;;;27.70;35.80;;;;;;5053419;28;20601;-78
2022/07/20 03:24:54;;;;;;;8.93;5.60;;;27.70;35.80;;;;;;5053316;28;20533;-78
2022/07/20 03:27:22;;;;;;;6.43;5.00;;;27.50;36.40;;;;;;5054012;28;20427;-79
2022/07/20 03:29:50;;;;;;;12.67;4.90;;;27.60;36.30;;;;;;5056234;28;20453;-80
2022/07/20 03:32:18;;;;;;;9.73;5.37;;;27.90;35.90;;;;;;5055961;28;20521;-79
2022/07/20 03:34:46;;;;;;;9.00;5.03;;;27.90;36.10;;;;;;5054275;28;20482;-79
2022/07/20 03:37:15;;;;;;;8.90;5.20;;;27.60;36.40;;;;;;5055024;28;20445;-79
2022/07/20 03:39:42;;;;;;;10.97;5.87;;;27.60;36.60;;;;;;5051499;28;20453;-79
2022/07/20 03:42:10;;;;;;;8.07;4.70;;;27.60;36.20;;;;;;5046092;28;20438;-79
2022/07/20 03:44:38;;;;;;;7.10;4.90;;;27.40;36.80;;;;;;5035676;28;20467;-79
2022/07/20 03:47:06;;;;;;;10.43;5.17;;;27.10;37.30;;;;;;5049811;28;20466;-79
2022/07/20 03:49:34;;;;;;;8.80;4.97;;;27.00;37.30;;;;;;5053987;28;20454;-79
2022/07/20 03:52:02;;;;;;;8.30;4.90;;;27.10;37.40;;;;;;5055523;28;20442;-79
2022/07/20 03:54:33;;;;;;;9.73;4.90;;;27.30;37.20;;;;;;5054754;28;20441;-79
2022/07/20 03:57:01;;;;;;;5.20;4.70;;;27.40;37.20;;;;;;5053919;28;20446;-79
2022/07/20 03:59:29;;;;;;;15.73;8.17;;;27.20;36.80;;;;;;5038264;28;21102;-79
2022/07/20 04:01:57;;;;;;;15.70;10.60;;;27.30;37.30;;;;;;5052719;28;20568;-79
2022/07/20 04:04:25;;;;;;;20.53;12.40;;;27.30;37.60;;;;;;5055258;28;20533;-79
2022/07/20 04:06:53;;;;;;;11.60;5.93;;;27.30;37.10;;;;;;5054402;28;20774;-79
2022/07/20 04:09:43;;;;;;;6.23;5.27;;;27.10;37.30;;;;;;5055281;28;20450;-79
2022/07/20 04:12:11;;;;;;;9.33;6.63;;;26.90;37.40;;;;;;5055539;28;20445;-79
2022/07/20 04:14:39;;;;;;;11.70;5.27;;;26.90;38.10;;;;;;5056255;28;20524;-79
2022/07/20 04:17:06;;;;;;;9.80;6.30;;;26.80;37.70;;;;;;5055202;28;20435;-79
2022/07/20 04:19:36;;;;;;;17.47;5.30;;;27.00;37.70;;;;;;5055493;28;20445;-79
2022/07/20 04:22:03;;;;;;;10.03;6.30;;;27.10;37.20;;;;;;5054813;28;20444;-79
2022/07/20 04:24:31;;;;;;;14.90;5.90;;;27.00;37.50;;;;;;5055907;28;20433;-79
2022/07/20 04:26:59;;;;;;;8.83;5.77;;;27.00;37.60;;;;;;5054804;28;20468;-79
2022/07/20 04:29:28;;;;;;;7.33;5.60;;;27.00;37.60;;;;;;5055722;28;20500;-79
2022/07/20 04:31:56;;;;;;;9.93;6.50;;;27.10;37.40;;;;;;5055419;28;20522;-79
2022/07/20 04:34:24;;;;;;;10.00;5.30;;;27.10;37.80;;;;;;5055115;28;20462;-79
2022/07/20 04:36:51;;;;;;;6.50;5.03;;;27.10;37.50;;;;;;5054341;28;20412;-79
2022/07/20 04:39:19;;;;;;;11.13;5.63;;;27.00;37.80;;;;;;5049536;28;20432;-79
2022/07/20 04:41:47;;;;;;;10.77;6.57;;;27.20;37.60;;;;;;5043158;28;20471;-78
2022/07/20 04:44:15;;;;;;;12.10;6.10;;;27.30;37.70;;;;;;5034490;28;20531;-79
2022/07/20 04:46:44;;;;;;;9.93;6.63;;;27.30;37.80;;;;;;5053010;28;20463;-80
2022/07/20 04:49:11;;;;;;;10.43;5.53;;;27.40;37.90;;;;;;5054415;28;20522;-79
2022/07/20 04:51:39;;;;;;;9.67;5.57;;;27.50;38.10;;;;;;5054437;28;20462;-79
2022/07/20 04:54:07;;;;;;;5.50;4.70;;;27.50;37.40;;;;;;5053832;28;20546;-79
2022/07/20 04:56:35;;;;;;;8.57;5.87;;;27.40;37.60;;;;;;5052817;28;20455;-79
2022/07/20 04:59:03;;;;;;;11.50;6.10;;;27.40;37.90;;;;;;5036634;28;20458;-80
2022/07/20 05:01:31;;;;;;;8.90;4.90;;;27.50;37.40;;;;;;5051284;28;20449;-80
2022/07/20 05:04:00;;;;;;;10.60;4.90;;;27.70;37.30;;;;;;5056289;28;20471;-79
2022/07/20 05:06:28;;;;;;;6.40;5.00;;;27.80;37.20;;;;;;5055949;28;20471;-79
2022/07/20 05:08:57;;;;;;;10.00;5.20;;;27.70;37.30;;;;;;5055800;28;20947;-79
2022/07/20 05:11:26;;;;;;;10.20;5.43;;;27.70;37.70;;;;;;5054724;28;20511;-79
2022/07/20 05:13:54;;;;;;;6.50;4.83;;;27.80;37.30;;;;;;5054487;28;20553;-79
2022/07/20 05:16:22;;;;;;;9.03;5.10;;;27.80;37.30;;;;;;5058284;28;20480;-77
2022/07/20 05:18:50;;;;;;;9.60;4.90;;;27.50;37.50;;;;;;5056445;28;20450;-80
2022/07/20 05:21:20;;;;;;;9.40;5.43;;;27.60;37.50;;;;;;5057776;28;20806;-80
2022/07/20 05:23:47;;;;;;;7.87;5.20;;;27.70;37.80;;;;;;5056866;28;20479;-80
2022/07/20 05:26:15;;;;;;;6.70;5.00;;;27.70;37.80;;;;;;5055235;28;20436;-80
2022/07/20 05:28:43;;;;;;;11.30;5.43;;;27.90;37.50;;;;;;5056729;28;20525;-80
2022/07/20 05:31:13;;;;;;;7.60;5.30;;;28.00;37.70;;;;;;5056749;28;20439;-80
2022/07/20 05:33:41;;;;;;;9.37;5.40;;;28.20;37.30;;;;;;5056550;28;20429;-80
2022/07/20 05:36:09;;;;;;;13.23;5.50;;;28.20;37.30;;;;;;5056271;28;20507;-80
2022/07/20 05:38:39;;;;;;;5.37;4.40;;;28.10;37.60;;;;;;5056576;28;20451;-80
2022/07/20 05:41:07;;;;;;;8.60;5.10;;;28.10;37.60;;;;;;5051518;28;20430;-80
2022/07/20 05:43:34;;;;;;;11.10;4.63;;;27.90;38.40;;;;;;5036145;28;20454;-80
2022/07/20 05:46:02;;;;;;;6.93;5.10;;;28.00;38.00;;;;;;5044994;28;20430;-80
2022/07/20 05:48:30;;;;;;;9.90;5.03;;;27.90;37.90;;;;;;5055777;28;20435;-80
2022/07/20 05:50:58;;;;;;;9.13;4.60;;;27.90;38.60;;;;;;5056683;28;20521;-80
2022/07/20 05:53:26;;;;;;;13.37;5.60;;;28.00;38.30;;;;;;5057116;28;20458;-80
2022/07/20 05:55:55;;;;;;;26.53;16.43;;;28.10;38.10;;;;;;5056014;28;20434;-80
2022/07/20 05:58:23;;;;;;;19.33;6.87;;;28.20;38.50;;;;;;5046493;28;20458;-80
2022/07/20 06:00:51;;;;;;;18.97;7.53;;;28.30;38.50;;;;;;5046675;28;20458;-80
2022/07/20 06:03:19;;;;;;;11.03;5.87;;;28.40;38.30;;;;;;5060144;28;20482;-80
2022/07/20 06:05:47;;;;;;;20.10;8.07;;;28.50;38.00;;;;;;5059203;28;20451;-80
2022/07/20 06:08:15;;;;;;;11.23;5.27;;;28.60;38.00;;;;;;5056239;28;20452;-80
2022/07/20 06:10:43;;;;;;;10.63;5.13;;;28.50;37.90;;;;;;5055434;28;20501;-80
2022/07/20 06:13:12;;;;;;;12.17;4.50;;;28.60;37.80;;;;;;5055126;28;20458;-80
2022/07/20 06:15:40;;;;;;;6.90;4.43;;;28.60;37.90;;;;;;5053312;28;20469;-80
2022/07/20 06:18:08;;;;;;;11.80;5.40;;;28.60;37.50;;;;;;5054379;28;20445;-80
2022/07/20 06:20:36;;;;;;;10.57;4.83;;;28.50;37.20;;;;;;5054254;28;20397;-80
2022/07/20 06:23:04;;;;;;;13.77;5.60;;;28.60;37.10;;;;;;5054474;28;20477;-79
2022/07/20 06:25:32;;;;;;;6.80;4.67;;;28.60;36.70;;;;;;5053806;28;20473;-80
2022/07/20 06:28:00;;;;;;;8.80;4.50;;;28.80;36.40;;;;;;5053835;28;20439;-80
2022/07/20 06:30:30;;;;;;;12.83;4.70;;;28.90;36.20;;;;;;5054044;28;20438;-80
2022/07/20 06:32:58;;;;;;;8.80;4.67;;;29.00;36.00;;;;;;5054589;28;20433;-80
2022/07/20 06:35:26;;;;;;;10.73;4.30;;;29.00;36.10;;;;;;5054307;28;20538;-80
2022/07/20 06:37:54;;;;;;;15.23;4.80;;;29.30;35.60;;;;;;5055313;28;20442;-80
2022/07/20 06:40:22;;;;;;;24.37;4.97;;;29.40;35.70;;;;;;5054987;28;20477;-80
2022/07/20 06:42:50;;;;;;;6.67;4.57;;;29.60;35.30;;;;;;5055547;28;20470;-80
2022/07/20 06:45:18;;;;;;;8.13;4.30;;;29.70;35.10;;;;;;5050801;28;20451;-79
2022/07/20 06:47:49;;;;;;;5.07;4.07;;;29.80;35.00;;;;;;5056380;28;20438;-80
2022/07/20 06:50:17;;;;;;;7.77;4.50;;;30.00;34.80;;;;;;5059590;28;20497;-80
2022/07/20 06:52:45;;;;;;;9.30;4.20;;;30.00;34.70;;;;;;5043166;28;20443;-80
2022/07/20 06:55:15;;;;;;;12.53;4.47;;;30.00;34.80;;;;;;5042193;28;20451;-80
2022/07/20 06:57:44;;;;;;;10.57;4.20;;;30.20;34.70;;;;;;5043571;28;20442;-80
2022/07/20 07:00:12;;;;;;;5.30;4.00;;;30.20;34.40;;;;;;5046209;28;20492;-80
2022/07/20 07:02:44;;;;;;;15.10;3.90;;;30.40;34.20;;;;;;5062268;28;20470;-80
2022/07/20 07:05:14;;;;;;;10.23;4.40;;;30.60;34.00;;;;;;5062982;28;20442;-80
2022/07/20 07:07:42;;;;;;;5.50;4.10;;;30.50;34.20;;;;;;5063614;28;20442;-80
2022/07/20 07:10:10;;;;;;;5.50;4.10;;;30.60;33.70;;;;;;5065751;28;20478;-80
2022/07/20 07:12:38;;;;;;;6.53;4.00;;;30.60;33.40;;;;;;5065848;28;20446;-81
2022/07/20 07:15:07;;;;;;;11.07;3.87;;;30.70;33.70;;;;;;5065475;28;20430;-81
2022/07/20 07:17:36;;;;;;;10.30;4.67;;;31.00;33.60;;;;;;5066062;28;20426;-80
2022/07/20 07:20:05;;;;;;;6.33;4.07;;;31.00;33.10;;;;;;5065988;28;20434;-80
2022/07/20 07:22:34;;;;;;;6.73;4.27;;;31.10;32.50;;;;;;5067242;28;20450;-81
2022/07/20 07:25:02;;;;;;;8.73;3.57;;;31.10;32.60;;;;;;5066559;28;20450;-81
2022/07/20 07:27:30;;;;;;;7.00;4.30;;;31.40;32.80;;;;;;5066856;28;20458;-80
2022/07/20 07:29:58;;;;;;;7.13;4.50;;;31.40;32.50;;;;;;5067270;28;20462;-81
2022/07/20 07:32:26;;;;;;;6.70;4.10;;;31.50;32.90;;;;;;5067389;28;20522;-80
2022/07/20 07:34:54;;;;;;;11.93;4.23;;;31.40;32.30;;;;;;5067462;28;20466;-81
2022/07/20 07:37:22;;;;;;;10.70;4.70;;;31.40;32.20;;;;;;5067085;28;20472;-81
2022/07/20 07:39:51;;;;;;;8.40;4.23;;;31.50;32.90;;;;;;5065474;28;20445;-81
2022/07/20 07:42:21;;;;;;;4.40;3.93;;;31.70;32.60;;;;;;5055332;28;20446;-81
2022/07/20 07:44:50;;;;;;;6.60;4.27;;;31.90;32.20;;;;;;5065441;28;20504;-81
2022/07/20 07:47:18;;;;;;;4.47;3.90;;;31.90;32.10;;;;;;5047198;28;20471;-81
2022/07/20 07:49:46;;;;;;;4.67;4.03;;;32.10;32.00;;;;;;5044467;28;20471;-80
2022/07/20 07:52:16;;;;;;;7.87;4.10;;;32.40;32.10;;;;;;5045426;28;20424;-80
2022/07/20 07:54:44;;;;;;;15.53;4.10;;;32.40;32.00;;;;;;5044451;28;20491;-81
2022/07/20 07:57:14;;;;;;;4.77;4.07;;;32.60;31.80;;;;;;5042352;28;20447;-80
2022/07/20 07:59:43;;;;;;;9.30;3.73;;;32.70;31.70;;;;;;5061251;28;20473;-80
2022/07/20 08:02:11;;;;;;;5.03;3.97;;;32.60;31.40;;;;;;5061997;28;20508;-80
2022/07/20 08:04:39;;;;;;;4.27;3.83;;;32.60;31.30;;;;;;5061707;28;20480;-80
2022/07/20 08:07:07;;;;;;;8.87;4.03;;;33.00;31.40;;;;;;5059922;28;20454;-81
2022/07/20 08:09:34;;;;;;;5.77;4.10;;;32.90;31.30;;;;;;5058754;28;20537;-81
2022/07/20 08:12:03;;;;;;;7.73;4.37;;;33.10;31.50;;;;;;5055015;28;20596;-81
2022/07/20 08:14:32;;;;;;;11.07;4.23;;;33.20;30.80;;;;;;5058850;28;20557;-81
2022/07/20 08:17:00;;;;;;;7.37;4.50;;;33.50;30.60;;;;;;5060211;28;20561;-81
2022/07/20 08:19:28;;;;;;;15.00;4.60;;;34.10;30.10;;;;;;5052305;28;20431;-81
2022/07/20 08:21:56;;;;;;;5.07;3.60;;;34.50;29.70;;;;;;5062453;28;20453;-82
2022/07/20 08:24:24;;;;;;;5.87;3.97;;;34.70;29.50;;;;;;5072180;28;20552;-81
2022/07/20 08:26:51;;;;;;;4.40;4.00;;;35.00;29.40;;;;;;5080390;28;20465;-80
2022/07/20 08:29:20;;;;;;;5.63;3.80;;;35.10;29.20;;;;;;5080015;28;20442;-81
2022/07/20 08:31:49;;;;;;;6.33;4.10;;;35.20;29.20;;;;;;5080890;28;20476;-81
2022/07/20 08:34:17;;;;;;;5.73;3.90;;;35.20;29.10;;;;;;5080360;28;20476;-81
2022/07/20 08:36:49;;;;;;;4.10;3.80;;;35.30;29.10;;;;;;5080373;28;20440;-81
2022/07/20 08:39:17;;;;;;;4.80;3.40;;;35.40;29.10;;;;;;5080272;28;20491;-81
2022/07/20 08:41:45;;;;;;;8.40;3.90;;;35.40;29.10;;;;;;5077264;28;20529;-81
2022/07/20 08:44:12;;;;;;;4.20;3.80;;;35.50;29.10;;;;;;5049224;28;20528;-81
2022/07/20 08:46:40;;;;;;;3.83;3.37;;;35.50;29.10;;;;;;5059686;28;20462;-80
2022/07/20 08:49:09;;;;;;;5.50;3.93;;;35.60;29.10;;;;;;5047730;28;20864;-81
2022/07/20 08:51:37;;;;;;;6.70;3.83;;;35.60;29.10;;;;;;5040730;28;20463;-81
2022/07/20 08:54:05;;;;;;;4.23;3.80;;;35.70;29.10;;;;;;5041185;28;20510;-81
2022/07/20 08:56:33;;;;;;;7.27;4.00;;;35.80;29.10;;;;;;5040492;28;20452;-81
2022/07/20 08:59:01;;;;;;;7.13;3.90;;;35.80;29.10;;;;;;5040806;28;20464;-81
2022/07/20 09:01:29;;;;;;;4.20;3.80;;;35.90;29.10;;;;;;5054904;28;20434;-80
2022/07/20 09:04:07;;;;;;;12.23;3.80;;;36.00;29.20;;;;;;5060376;28;20573;-81
2022/07/20 09:06:47;;;;;;;11.27;3.53;;;36.00;29.20;;;;;;5061922;28;20450;-80
2022/07/20 09:09:15;;;;;;;3.60;3.30;;;36.10;29.20;;;;;;5062411;28;20466;-80
2022/07/20 09:11:44;;;;;;;4.87;4.00;;;36.10;29.10;;;;;;5059148;28;20533;-81
2022/07/20 09:14:12;;;;;;;4.03;3.63;;;36.20;29.10;;;;;;5059626;28;20493;-81
2022/07/20 09:16:43;;;;;;;3.43;3.13;;;36.30;29.20;;;;;;5058165;28;20477;-81
2022/07/20 09:19:11;;;;;;;3.80;3.40;;;36.30;29.20;;;;;;5059879;28;20442;-81
2022/07/20 09:21:48;;;;;;;3.90;3.60;;;36.40;29.10;;;;;;5058498;28;20446;-81
2022/07/20 09:24:17;;;;;;;4.27;3.87;;;36.50;29.10;;;;;;5059623;28;20501;-81
2022/07/20 09:26:45;;;;;;;5.43;3.80;;;36.60;29.10;;;;;;5058521;28;20443;-81
2022/07/20 09:29:13;;;;;;;4.63;3.30;;;36.60;29.10;;;;;;5058959;28;20529;-81
2022/07/20 09:31:41;;;;;;;5.20;3.53;;;36.70;29.10;;;;;;5059247;28;20473;-81
2022/07/20 09:34:12;;;;;;;4.20;3.97;;;36.80;29.10;;;;;;5059284;28;20476;-81
2022/07/20 09:36:42;;;;;;;3.80;3.33;;;36.90;29.10;;;;;;5058124;28;20462;-81
2022/07/20 09:39:12;;;;;;;3.40;3.20;;;36.90;29.00;;;;;;5059060;28;20521;-81
2022/07/20 09:41:40;;;;;;;4.63;3.57;;;37.00;29.00;;;;;;5059597;28;20442;-81
2022/07/20 09:44:10;;;;;;;5.17;3.50;;;37.10;29.00;;;;;;5053414;28;20506;-81
2022/07/20 09:46:39;;;;;;;4.47;4.07;;;37.20;29.00;;;;;;5039159;28;20494;-81
2022/07/20 09:49:08;;;;;;;6.67;3.97;;;37.20;28.90;;;;;;5060570;28;20519;-81
2022/07/20 09:51:43;;;;;;;3.87;3.67;;;37.30;28.90;;;;;;5068147;28;20541;-81
2022/07/20 09:54:13;;;;;;;3.83;3.63;;;37.40;28.90;;;;;;5078861;28;20527;-81
2022/07/20 09:56:42;;;;;;;4.10;3.60;;;37.50;28.80;;;;;;5066089;28;20506;-81
2022/07/20 09:59:11;;;;;;;3.57;3.17;;;37.60;28.90;;;;;;5046527;28;20424;-81
2022/07/20 10:01:41;;;;;;;7.87;3.53;;;37.70;28.90;;;;;;5045045;28;20467;-81
2022/07/20 10:04:11;;;;;;;4.00;3.70;;;37.70;28.80;;;;;;5045474;28;20456;-81
2022/07/20 10:06:39;;;;;;;4.40;3.53;;;37.80;28.80;;;;;;5047789;28;20455;-81
2022/07/20 10:09:07;;;;;;;4.83;3.57;;;37.90;28.80;;;;;;5045406;28;20427;-81
2022/07/20 10:11:36;;;;;;;3.70;3.50;;;37.90;28.70;;;;;;5047131;28;20450;-81
2022/07/20 10:14:05;;;;;;;6.83;3.57;;;38.00;28.70;;;;;;5047780;28;20538;-81
2022/07/20 10:16:34;;;;;;;3.80;3.43;;;38.10;28.70;;;;;;5044927;28;20420;-81
2022/07/20 10:19:03;;;;;;;4.00;3.60;;;38.20;28.70;;;;;;5044519;28;20516;-81
2022/07/20 10:21:41;;;;;;;3.40;3.20;;;38.30;28.60;;;;;;5048530;28;20484;-81
2022/07/20 10:24:25;;;;;;;7.20;3.90;;;38.30;28.70;;;;;;5045023;28;20502;-81
2022/07/20 10:26:56;;;;;;;6.40;3.57;;;38.40;28.60;;;;;;5045585;28;20507;-81
2022/07/20 10:29:28;;;;;;;4.00;3.50;;;38.50;28.60;;;;;;5045387;28;20454;-81
2022/07/20 10:31:57;;;;;;;3.50;3.33;;;38.60;28.60;;;;;;5048725;28;20427;-81
2022/07/20 10:34:34;;;;;;;3.10;2.90;;;38.70;28.60;;;;;;5042849;28;20559;-82
2022/07/20 10:37:27;;;;;;;3.50;3.30;;;38.80;28.60;;;;;;5050365;28;20508;-81
2022/07/20 10:40:07;;;;;;;3.57;3.40;;;38.80;28.70;;;;;;5042123;28;20491;-80
2022/07/20 10:42:37;;;;;;;6.77;3.60;;;38.90;28.60;;;;;;5058449;28;20442;-81
2022/07/20 10:45:31;;;;;;;3.70;3.40;;;39.00;28.60;;;;;;5049676;28;20463;-81
2022/07/20 10:48:15;;;;;;;3.20;3.00;;;39.00;28.70;;;;;;5041242;28;20463;-81
2022/07/20 10:50:44;;;;;;;3.07;2.80;;;39.10;28.50;;;;;;5056138;28;20533;-81
2022/07/20 10:53:33;;;;;;;3.27;3.07;;;39.20;28.50;;;;;;5041209;28;20543;-81
2022/07/20 10:56:09;;;;;;;3.20;3.10;;;39.30;28.70;;;;;;5041111;28;20436;-81
2022/07/20 10:58:39;;;;;;;3.73;3.53;;;39.40;28.50;;;;;;5039225;28;20454;-81
2022/07/20 11:01:08;;;;;;;3.40;3.20;;;39.40;28.50;;;;;;5048990;28;20510;-81
2022/07/20 11:03:37;;;;;;;3.50;3.30;;;39.50;28.60;;;;;;5057447;28;20525;-81
2022/07/20 11:06:08;;;;;;;3.90;3.60;;;39.60;28.60;;;;;;5057536;28;20478;-81
2022/07/20 11:08:37;;;;;;;3.40;3.20;;;39.60;28.60;;;;;;5053505;28;20511;-81
2022/07/20 11:11:07;;;;;;;3.60;3.30;;;39.70;28.60;;;;;;5045845;28;20543;-81
2022/07/20 11:13:35;;;;;;;3.37;3.13;;;39.80;28.60;;;;;;5058553;28;20465;-81
2022/07/20 11:16:05;;;;;;;3.43;3.13;;;39.80;28.60;;;;;;5061201;28;20446;-81
2022/07/20 11:18:34;;;;;;;3.67;3.37;;;39.90;28.60;;;;;;5054410;28;20505;-81
2022/07/20 11:21:03;;;;;;;3.30;3.10;;;39.90;28.50;;;;;;5040403;28;20510;-81
2022/07/20 11:23:39;;;;;;;3.50;3.30;;;40.00;28.60;;;;;;5052030;28;20469;-81
2022/07/20 11:26:07;;;;;;;3.73;3.00;;;40.10;28.70;;;;;;5056340;28;20544;-81
2022/07/20 11:28:36;;;;;;;3.73;3.47;;;40.10;28.60;;;;;;5058373;28;20473;-81
2022/07/20 11:31:07;;;;;;;3.20;3.00;;;40.20;28.60;;;;;;5042758;28;20447;-81
2022/07/20 11:33:36;;;;;;;3.70;3.30;;;40.20;28.60;;;;;;5043251;28;20542;-81
2022/07/20 11:36:05;;;;;;;3.33;3.13;;;40.30;28.60;;;;;;5052007;28;20514;-81
2022/07/20 11:38:37;;;;;;;4.00;3.27;;;40.30;28.60;;;;;;5061518;28;20473;-81
2022/07/20 11:41:06;;;;;;;3.77;3.57;;;40.40;28.50;;;;;;5056526;28;20517;-81
2022/07/20 11:43:48;;;;;;;3.53;3.20;;;40.40;28.50;;;;;;5053337;28;20470;-81
2022/07/20 11:46:18;;;;;;;4.40;3.57;;;40.50;28.60;;;;;;5050838;28;20567;-81
2022/07/20 11:48:53;;;;;;;3.73;3.33;;;40.60;28.60;;;;;;5042355;28;20451;-81
2022/07/20 11:51:41;;;;;;;3.50;3.30;;;40.60;28.70;;;;;;5041697;28;20435;-81
2022/07/20 11:54:09;;;;;;;3.80;3.60;;;40.70;28.50;;;;;;5061293;28;20466;-81
2022/07/20 11:56:38;;;;;;;3.40;3.20;;;40.70;28.50;;;;;;5060764;28;20529;-81
2022/07/20 11:59:06;;;;;;;3.63;3.43;;;40.70;28.40;;;;;;5047588;28;20522;-81
2022/07/20 12:01:36;;;;;;;5.80;3.40;;;40.80;28.60;;;;;;5044792;28;20456;-81
2022/07/20 12:04:06;;;;;;;5.40;3.90;;;40.90;28.60;;;;;;5065530;28;20469;-81
2022/07/20 12:06:35;;;;;;;3.63;3.33;;;40.90;28.70;;;;;;5060666;28;20564;-81
2022/07/20 12:09:04;;;;;;;4.30;4.10;;;40.90;28.70;;;;;;5061730;28;20450;-81
2022/07/20 12:11:32;;;;;;;3.97;3.67;;;40.90;28.70;;;;;;5041059;28;20439;-81
2022/07/20 12:14:00;;;;;;;5.53;3.30;;;41.00;28.70;;;;;;5041637;28;20534;-81
2022/07/20 12:16:39;;;;;;;4.13;3.83;;;41.10;28.70;;;;;;5054840;28;20442;-81
2022/07/20 12:19:07;;;;;;;3.93;3.73;;;41.10;28.90;;;;;;5060443;28;20450;-81
2022/07/20 12:21:42;;;;;;;3.70;3.40;;;41.10;28.80;;;;;;5061197;28;20482;-81
2022/07/20 12:24:10;;;;;;;4.03;3.80;;;41.20;28.90;;;;;;5053945;28;20477;-81
2022/07/20 12:26:38;;;;;;;3.63;3.43;;;41.30;28.90;;;;;;5040241;28;21056;-81
2022/07/20 12:29:20;;;;;;;3.73;3.53;;;41.30;28.90;;;;;;5042206;28;20684;-81
2022/07/20 12:31:59;;;;;;;3.87;3.67;;;41.30;29.00;;;;;;5068257;28;20485;-81
2022/07/20 12:34:27;;;;;;;4.17;3.73;;;41.30;29.00;;;;;;5064521;28;20469;-81
2022/07/20 12:36:55;;;;;;;4.10;3.80;;;41.40;29.00;;;;;;5050194;28;20435;-81
2022/07/20 12:39:36;;;;;;;3.50;3.33;;;41.40;28.90;;;;;;5046112;28;20446;-82
2022/07/20 12:42:12;;;;;;;4.23;4.03;;;41.40;29.10;;;;;;5053134;28;20532;-80
2022/07/20 12:44:58;;;;;;;3.90;3.70;;;41.40;29.00;;;;;;5056299;28;20546;-81
2022/07/20 12:47:27;;;;;;;4.00;3.70;;;41.50;29.00;;;;;;5039472;28;20474;-81
2022/07/20 12:50:15;;;;;;;3.70;3.40;;;41.50;29.00;;;;;;5038758;28;20427;-81
2022/07/20 12:52:43;;;;;;;4.20;3.90;;;41.50;29.00;;;;;;5039645;28;20474;-81
2022/07/20 12:55:10;;;;;;;3.53;3.33;;;41.50;29.00;;;;;;5039814;28;20534;-81
2022/07/20 12:57:38;;;;;;;4.27;3.90;;;41.60;29.10;;;;;;5047843;28;20434;-81
2022/07/20 13:00:07;;;;;;;4.30;4.00;;;41.60;29.20;;;;;;5059286;28;20896;-81
2022/07/20 13:02:37;;;;;;;4.03;3.73;;;41.70;29.20;;;;;;5059656;28;20446;-81